Time,TemperatureF,DewpointF,PressureIn,WindDirection,WindDirectionDegrees,WindSpeedMPH,WindSpeedGustMPH,Humidity,HourlyPrecipIn,Conditions,Clouds,dailyrainin,SoftwareType,DateUTC
2013-06-22 00:01:00,61.9,56.7,29.88,NW,315,0.0,0.4,83,0.00,,,0.00,WUHU216HW,2013-06-22 04:01:00,
2013-06-22 00:02:00,61.9,56.7,29.87,NW,315,0.0,0.0,83,0.00,,,0.00,WUHU216HW,2013-06-22 04:02:00,
2013-06-22 00:03:00,61.9,56.7,29.87,NW,315,0.0,0.0,83,0.00,,,0.00,WUHU216HW,2013-06-22 04:03:00,
2013-06-22 00:08:00,61.7,56.5,29.88,NW,315,0.3,0.7,83,0.00,,,0.00,WUHU216HW,2013-06-22 04:08:00,
2013-06-22 00:13:00,61.6,56.3,29.88,NW,315,0.4,0.7,83,0.00,,,0.00,WUHU216HW,2013-06-22 04:13:00,
2013-06-22 00:18:00,61.4,56.2,29.88,NW,315,0.0,0.4,83,0.00,,,0.00,WUHU216HW,2013-06-22 04:18:00,
2013-06-22 00:23:00,61.4,56.2,29.88,NW,315,0.0,0.0,83,0.00,,,0.00,WUHU216HW,2013-06-22 04:23:00,
2013-06-22 00:28:00,61.2,56.1,29.88,NW,315,0.0,0.0,83,0.00,,,0.00,WUHU216HW,2013-06-22 04:28:00,
2013-06-22 00:33:00,61.0,55.9,29.88,NW,315,0.0,0.0,83,0.00,,,0.00,WUHU216HW,2013-06-22 04:33:00,
2013-06-22 00:38:00,61.0,55.9,29.88,NW,315,0.0,0.0,83,0.00,,,0.00,WUHU216HW,2013-06-22 04:38:00,
2013-06-22 00:44:00,60.8,55.7,29.87,NW,315,0.0,0.0,83,0.00,,,0.00,WUHU216HW,2013-06-22 04:44:00,
2013-06-22 00:49:00,60.8,55.7,29.88,NW,315,0.0,0.0,83,0.00,,,0.00,WUHU216HW,2013-06-22 04:49:00,
2013-06-22 00:54:00,60.8,55.7,29.87,NW,315,0.0,0.0,83,0.00,,,0.00,WUHU216HW,2013-06-22 04:54:00,
2013-06-22 00:59:00,60.7,55.5,29.87,NW,315,0.0,0.0,83,0.00,,,0.00,WUHU216HW,2013-06-22 04:59:00,
2013-06-22 01:04:00,60.5,55.4,29.87,NW,315,0.0,0.0,83,0.00,,,0.00,WUHU216HW,2013-06-22 05:04:00,
2013-06-22 01:09:00,60.5,55.4,29.87,NW,315,0.0,0.0,83,0.00,,,0.00,WUHU216HW,2013-06-22 05:09:00,
2013-06-22 01:14:00,60.1,55.3,29.87,NW,315,0.0,0.0,84,0.00,,,0.00,WUHU216HW,2013-06-22 05:14:00,
2013-06-22 01:19:00,60.1,55.3,29.87,NW,315,0.0,0.0,84,0.00,,,0.00,WUHU216HW,2013-06-22 05:19:00,
2013-06-22 01:24:00,59.9,55.1,29.87,NW,315,0.0,0.0,84,0.00,,,0.00,WUHU216HW,2013-06-22 05:24:00,
2013-06-22 01:29:00,59.8,54.9,29.88,NW,315,0.0,0.0,84,0.00,,,0.00,WUHU216HW,2013-06-22 05:29:00,
2013-06-22 01:34:00,59.8,54.9,29.88,NW,315,0.0,0.0,84,0.00,,,0.00,WUHU216HW,2013-06-22 05:34:00,
2013-06-22 01:39:00,59.6,54.7,29.88,NW,315,0.0,0.0,84,0.00,,,0.00,WUHU216HW,2013-06-22 05:39:00,
2013-06-22 01:44:00,59.4,54.9,29.89,NW,315,0.0,0.0,85,0.00,,,0.00,WUHU216HW,2013-06-22 05:44:00,
2013-06-22 01:49:00,59.4,54.9,29.89,NW,315,0.0,0.0,85,0.00,,,0.00,WUHU216HW,2013-06-22 05:49:00,
2013-06-22 01:54:00,59.4,54.9,29.88,NW,315,0.0,0.0,85,0.00,,,0.00,WUHU216HW,2013-06-22 05:54:00,
2013-06-22 01:59:00,59.2,54.7,29.88,NW,315,0.0,0.0,85,0.00,,,0.00,WUHU216HW,2013-06-22 05:59:00,
2013-06-22 02:05:00,59.2,54.7,29.89,NW,315,0.0,0.0,85,0.00,,,0.00,WUHU216HW,2013-06-22 06:05:00,
2013-06-22 02:10:00,59.0,54.5,29.89,NW,315,0.0,0.0,85,0.00,,,0.00,WUHU216HW,2013-06-22 06:10:00,
2013-06-22 02:15:00,59.0,54.5,29.89,NW,315,0.0,0.0,85,0.00,,,0.00,WUHU216HW,2013-06-22 06:15:00,
2013-06-22 02:20:00,58.9,54.4,29.89,NW,315,0.0,0.0,85,0.00,,,0.00,WUHU216HW,2013-06-22 06:20:00,
2013-06-22 02:25:00,58.9,54.4,29.88,NW,315,0.0,0.0,85,0.00,,,0.00,WUHU216HW,2013-06-22 06:25:00,
2013-06-22 02:30:00,58.7,54.2,29.88,NW,315,0.0,0.0,85,0.00,,,0.00,WUHU216HW,2013-06-22 06:30:00,
2013-06-22 02:35:00,58.7,54.6,29.88,NW,315,0.0,0.0,86,0.00,,,0.00,WUHU216HW,2013-06-22 06:35:00,
2013-06-22 02:40:00,58.7,54.6,29.88,NW,315,0.0,0.0,86,0.00,,,0.00,WUHU216HW,2013-06-22 06:40:00,
2013-06-22 02:45:00,58.5,54.6,29.88,NW,315,0.0,0.0,87,0.00,,,0.00,WUHU216HW,2013-06-22 06:45:00,
2013-06-22 02:50:00,58.3,54.5,29.88,NW,315,0.0,0.0,87,0.00,,,0.00,WUHU216HW,2013-06-22 06:50:00,
2013-06-22 02:55:00,58.3,54.5,29.88,NW,315,0.0,0.0,87,0.00,,,0.00,WUHU216HW,2013-06-22 06:55:00,
2013-06-22 03:00:00,58.1,54.3,29.88,NW,315,0.0,0.0,87,0.00,,,0.00,WUHU216HW,2013-06-22 07:00:00,
2013-06-22 03:05:00,58.0,54.1,29.88,NW,315,0.0,0.0,87,0.00,,,0.00,WUHU216HW,2013-06-22 07:05:00,
2013-06-22 03:10:00,58.0,54.1,29.88,NW,315,0.0,0.0,87,0.00,,,0.00,WUHU216HW,2013-06-22 07:10:00,
2013-06-22 03:16:00,57.8,53.9,29.88,NW,315,0.0,0.0,87,0.00,,,0.00,WUHU216HW,2013-06-22 07:16:00,
2013-06-22 03:21:00,57.8,53.9,29.88,NW,315,0.0,0.0,87,0.00,,,0.00,WUHU216HW,2013-06-22 07:21:00,
2013-06-22 03:26:00,57.8,53.9,29.88,NW,315,0.0,0.0,87,0.00,,,0.00,WUHU216HW,2013-06-22 07:26:00,
2013-06-22 03:31:00,57.6,53.7,29.88,NW,315,0.0,0.0,87,0.00,,,0.00,WUHU216HW,2013-06-22 07:31:00,
2013-06-22 03:36:00,57.6,53.7,29.88,NW,315,0.0,0.0,87,0.00,,,0.00,WUHU216HW,2013-06-22 07:36:00,
2013-06-22 03:41:00,57.6,53.7,29.88,NW,315,0.0,0.0,87,0.00,,,0.00,WUHU216HW,2013-06-22 07:41:00,
2013-06-22 03:46:00,57.4,53.3,29.88,NW,315,0.0,0.0,86,0.00,,,0.00,WUHU216HW,2013-06-22 07:46:00,
2013-06-22 03:51:00,57.2,53.1,29.88,NW,315,0.0,0.0,86,0.00,,,0.00,WUHU216HW,2013-06-22 07:51:00,
2013-06-22 03:56:00,57.2,53.1,29.87,NW,315,0.0,0.0,86,0.00,,,0.00,WUHU216HW,2013-06-22 07:56:00,
2013-06-22 04:01:00,57.1,52.9,29.87,NW,315,0.0,0.0,86,0.00,,,0.00,WUHU216HW,2013-06-22 08:01:00,
2013-06-22 04:06:00,56.9,52.8,29.87,NW,315,0.0,0.0,86,0.00,,,0.00,WUHU216HW,2013-06-22 08:06:00,
2013-06-22 04:11:00,56.9,52.8,29.87,NW,315,0.0,0.0,86,0.00,,,0.00,WUHU216HW,2013-06-22 08:11:00,
2013-06-22 04:17:00,56.7,52.8,29.87,NW,315,0.0,0.0,87,0.00,,,0.00,WUHU216HW,2013-06-22 08:17:00,
2013-06-22 04:22:00,56.5,52.7,29.87,NW,315,0.0,0.0,87,0.00,,,0.00,WUHU216HW,2013-06-22 08:22:00,
2013-06-22 04:27:00,56.5,52.7,29.87,NW,315,0.0,0.0,87,0.00,,,0.00,WUHU216HW,2013-06-22 08:27:00,
2013-06-22 04:32:00,56.5,52.7,29.87,NW,315,0.0,0.0,87,0.00,,,0.00,WUHU216HW,2013-06-22 08:32:00,
2013-06-22 04:37:00,56.2,52.3,29.87,NW,315,0.0,0.0,87,0.00,,,0.00,WUHU216HW,2013-06-22 08:37:00,
2013-06-22 04:42:00,56.2,52.3,29.87,NW,315,0.0,0.0,87,0.00,,,0.00,WUHU216HW,2013-06-22 08:42:00,
2013-06-22 04:47:00,56.2,52.3,29.87,NW,315,0.0,0.0,87,0.00,,,0.00,WUHU216HW,2013-06-22 08:47:00,
2013-06-22 04:52:00,56.0,52.1,29.87,NW,315,0.0,0.0,87,0.00,,,0.00,WUHU216HW,2013-06-22 08:52:00,
2013-06-22 04:57:00,56.0,52.1,29.87,NW,315,0.0,0.0,87,0.00,,,0.00,WUHU216HW,2013-06-22 08:57:00,
2013-06-22 05:02:00,55.8,51.9,29.87,NW,315,0.0,0.0,87,0.00,,,0.00,WUHU216HW,2013-06-22 09:02:00,
2013-06-22 05:08:00,55.8,51.9,29.87,NW,315,0.0,0.0,87,0.00,,,0.00,WUHU216HW,2013-06-22 09:08:00,
2013-06-22 05:13:00,55.8,51.9,29.87,NW,315,0.0,0.0,87,0.00,,,0.00,WUHU216HW,2013-06-22 09:13:00,
2013-06-22 05:18:00,55.6,51.8,29.87,NW,315,0.0,0.0,87,0.00,,,0.00,WUHU216HW,2013-06-22 09:18:00,
2013-06-22 05:23:00,55.6,52.1,29.87,NW,315,0.0,0.0,88,0.00,,,0.00,WUHU216HW,2013-06-22 09:23:00,
2013-06-22 05:28:00,55.6,52.1,29.87,NW,315,0.0,0.0,88,0.00,,,0.00,WUHU216HW,2013-06-22 09:28:00,
2013-06-22 05:33:00,55.6,52.1,29.87,NW,315,0.0,0.0,88,0.00,,,0.00,WUHU216HW,2013-06-22 09:33:00,
2013-06-22 05:38:00,55.6,52.1,29.87,NW,315,0.0,0.0,88,0.00,,,0.00,WUHU216HW,2013-06-22 09:38:00,
2013-06-22 05:43:00,55.6,52.1,29.87,NW,315,0.0,0.0,88,0.00,,,0.00,WUHU216HW,2013-06-22 09:43:00,
2013-06-22 05:49:00,55.6,52.1,29.87,NW,315,0.0,0.0,88,0.00,,,0.00,WUHU216HW,2013-06-22 09:49:00,
2013-06-22 05:54:00,55.6,52.1,29.87,NW,315,0.0,0.0,88,0.00,,,0.00,WUHU216HW,2013-06-22 09:54:00,
2013-06-22 05:59:00,55.6,52.1,29.87,NW,315,0.0,0.0,88,0.00,,,0.00,WUHU216HW,2013-06-22 09:59:00,
2013-06-22 06:04:00,55.6,52.1,29.87,NW,315,0.0,0.0,88,0.00,,,0.00,WUHU216HW,2013-06-22 10:04:00,
2013-06-22 06:09:00,55.8,52.3,29.88,NW,315,0.0,0.0,88,0.00,,,0.00,WUHU216HW,2013-06-22 10:09:00,
2013-06-22 06:14:00,55.8,52.3,29.87,NW,315,0.0,0.0,88,0.00,,,0.00,WUHU216HW,2013-06-22 10:14:00,
2013-06-22 06:19:00,55.8,52.3,29.87,NW,315,0.0,0.0,88,0.00,,,0.00,WUHU216HW,2013-06-22 10:19:00,
2013-06-22 06:24:00,56.2,52.9,29.87,NW,315,0.0,0.0,89,0.00,,,0.00,WUHU216HW,2013-06-22 10:24:00,
2013-06-22 06:30:00,56.2,52.9,29.87,NW,315,0.0,0.0,89,0.00,,,0.00,WUHU216HW,2013-06-22 10:30:00,
2013-06-22 06:35:00,56.3,53.1,29.87,NW,315,0.0,0.0,89,0.00,,,0.00,WUHU216HW,2013-06-22 10:35:00,
2013-06-22 06:40:00,56.5,53.3,29.87,SW,225,0.0,0.0,89,0.00,,,0.00,WUHU216HW,2013-06-22 10:40:00,
2013-06-22 06:45:00,56.9,53.6,29.86,SW,225,0.0,0.0,89,0.00,,,0.00,WUHU216HW,2013-06-22 10:45:00,
2013-06-22 06:50:00,56.9,53.6,29.86,SW,225,0.0,0.0,89,0.00,,,0.00,WUHU216HW,2013-06-22 10:50:00,
2013-06-22 06:55:00,57.2,54.0,29.86,SW,225,0.0,0.0,89,0.00,,,0.00,WUHU216HW,2013-06-22 10:55:00,
2013-06-22 07:00:00,57.4,54.2,29.86,SW,225,0.0,0.0,89,0.00,,,0.00,WUHU216HW,2013-06-22 11:00:00,
2013-06-22 07:05:00,57.8,54.5,29.86,SW,225,0.0,0.0,89,0.00,,,0.00,WUHU216HW,2013-06-22 11:05:00,
2013-06-22 07:11:00,57.8,54.5,29.85,SW,225,0.0,0.0,89,0.00,,,0.00,WUHU216HW,2013-06-22 11:11:00,
2013-06-22 07:16:00,58.0,54.7,29.85,SW,225,0.0,0.0,89,0.00,,,0.00,WUHU216HW,2013-06-22 11:16:00,
2013-06-22 07:21:00,58.1,54.9,29.85,SW,225,0.0,0.0,89,0.00,,,0.00,WUHU216HW,2013-06-22 11:21:00,
2013-06-22 07:26:00,58.3,55.4,29.85,SW,225,0.0,0.0,90,0.00,,,0.00,WUHU216HW,2013-06-22 11:26:00,
2013-06-22 07:31:00,58.7,55.8,29.85,SW,225,0.0,0.0,90,0.00,,,0.00,WUHU216HW,2013-06-22 11:31:00,
2013-06-22 07:36:00,58.9,55.6,29.85,WSW,248,0.0,0.0,89,0.00,,,0.00,WUHU216HW,2013-06-22 11:36:00,
2013-06-22 07:41:00,59.2,56.0,29.86,West,270,0.0,0.0,89,0.00,,,0.00,WUHU216HW,2013-06-22 11:41:00,
2013-06-22 07:46:00,59.4,56.2,29.86,West,270,0.0,0.0,89,0.00,,,0.00,WUHU216HW,2013-06-22 11:46:00,
2013-06-22 07:51:00,59.9,56.7,29.85,West,270,0.0,0.0,89,0.00,,,0.00,WUHU216HW,2013-06-22 11:51:00,
2013-06-22 07:56:00,60.1,56.9,29.86,West,270,0.0,0.0,89,0.00,,,0.00,WUHU216HW,2013-06-22 11:56:00,
2013-06-22 08:01:00,60.5,57.2,29.86,WNW,293,0.0,0.0,89,0.00,,,0.00,WUHU216HW,2013-06-22 12:01:00,
2013-06-22 08:07:00,61.0,57.5,29.86,West,270,0.0,0.0,88,0.00,,,0.00,WUHU216HW,2013-06-22 12:07:00,
2013-06-22 08:12:00,61.4,57.9,29.86,West,270,0.0,0.0,88,0.00,,,0.00,WUHU216HW,2013-06-22 12:12:00,
2013-06-22 08:17:00,62.1,58.2,29.85,WSW,248,0.0,0.4,87,0.00,,,0.00,WUHU216HW,2013-06-22 12:17:00,
2013-06-22 08:22:00,62.5,58.6,29.86,SW,225,0.2,0.4,87,0.00,,,0.00,WUHU216HW,2013-06-22 12:22:00,
2013-06-22 08:27:00,63.0,58.8,29.86,SW,225,0.0,0.4,86,0.00,,,0.00,WUHU216HW,2013-06-22 12:27:00,
2013-06-22 08:32:00,63.4,58.8,29.85,SW,225,0.0,0.4,85,0.00,,,0.00,WUHU216HW,2013-06-22 12:32:00,
2013-06-22 08:37:00,63.7,59.1,29.86,West,270,0.0,0.0,85,0.00,,,0.00,WUHU216HW,2013-06-22 12:37:00,
2013-06-22 08:42:00,64.1,59.5,29.85,West,270,0.0,0.0,85,0.00,,,0.00,WUHU216HW,2013-06-22 12:42:00,
2013-06-22 08:48:00,64.3,59.3,29.85,SW,225,0.0,0.0,84,0.00,,,0.00,WUHU216HW,2013-06-22 12:48:00,
2013-06-22 08:53:00,64.8,59.9,29.85,WSW,248,0.4,0.4,84,0.00,,,0.00,WUHU216HW,2013-06-22 12:53:00,
2013-06-22 08:58:00,65.2,60.2,29.86,WSW,248,0.7,0.7,84,0.00,,,0.00,WUHU216HW,2013-06-22 12:58:00,
2013-06-22 09:03:00,65.7,60.8,29.86,WSW,248,0.0,0.7,84,0.00,,,0.00,WUHU216HW,2013-06-22 13:03:00,
2013-06-22 09:08:00,66.1,61.0,29.86,SW,225,0.2,0.7,84,0.00,,,0.00,WUHU216HW,2013-06-22 13:08:00,
2013-06-22 09:13:00,66.6,61.3,29.85,SW,225,0.4,0.4,83,0.00,,,0.00,WUHU216HW,2013-06-22 13:13:00,
2013-06-22 09:18:00,67.0,61.3,29.85,SW,225,0.0,0.4,82,0.00,,,0.00,WUHU216HW,2013-06-22 13:18:00,
2013-06-22 09:23:00,67.3,61.7,29.85,SW,225,0.0,0.0,82,0.00,,,0.00,WUHU216HW,2013-06-22 13:23:00,
2013-06-22 09:28:00,67.9,62.2,29.85,SW,225,0.0,0.0,82,0.00,,,0.00,WUHU216HW,2013-06-22 13:28:00,
2013-06-22 09:33:00,68.2,62.6,29.85,SW,225,0.0,0.0,82,0.00,,,0.00,WUHU216HW,2013-06-22 13:33:00,
2013-06-22 09:38:00,68.6,62.6,29.85,WSW,248,0.0,0.0,81,0.00,,,0.00,WUHU216HW,2013-06-22 13:38:00,
2013-06-22 09:43:00,68.8,62.4,29.86,WSW,248,0.0,0.0,80,0.00,,,0.00,WUHU216HW,2013-06-22 13:43:00,
2013-06-22 09:48:00,69.3,62.9,29.85,West,270,0.0,0.0,80,0.00,,,0.00,WUHU216HW,2013-06-22 13:48:00,
2013-06-22 09:54:00,69.8,63.4,29.85,WSW,248,0.0,0.0,80,0.00,,,0.00,WUHU216HW,2013-06-22 13:54:00,
2013-06-22 09:59:00,70.4,63.6,29.86,WNW,293,0.0,0.0,79,0.00,,,0.00,WUHU216HW,2013-06-22 13:59:00,
2013-06-22 10:04:00,70.6,63.7,29.86,SW,225,0.0,0.0,79,0.00,,,0.00,WUHU216HW,2013-06-22 14:04:00,
2013-06-22 10:09:00,71.8,64.2,29.86,WSW,248,0.5,1.8,77,0.00,,,0.00,WUHU216HW,2013-06-22 14:09:00,
2013-06-22 10:14:00,72.4,64.4,29.87,North,0,1.3,1.8,76,0.00,,,0.00,WUHU216HW,2013-06-22 14:14:00,
2013-06-22 10:19:00,72.9,64.9,29.86,SW,215,0.3,1.8,76,0.00,,,0.00,WUHU216HW,2013-06-22 14:19:00,
2013-06-22 10:24:00,73.3,64.5,29.86,NNW,338,0.2,0.7,74,0.00,,,0.00,WUHU216HW,2013-06-22 14:24:00,
2013-06-22 10:29:00,73.4,65.1,29.86,WSW,248,0.7,1.1,75,0.00,,,0.00,WUHU216HW,2013-06-22 14:29:00,
2013-06-22 10:34:00,74.2,65.3,29.86,SSW,203,0.2,1.1,74,0.00,,,0.00,WUHU216HW,2013-06-22 14:34:00,
2013-06-22 10:39:00,74.7,65.9,29.86,SE,135,0.4,0.7,74,0.00,,,0.00,WUHU216HW,2013-06-22 14:39:00,
2013-06-22 10:45:00,75.6,66.7,29.86,WSW,248,0.2,0.4,74,0.00,,,0.00,WUHU216HW,2013-06-22 14:45:00,
2013-06-22 10:50:00,76.5,67.2,29.86,ESE,113,0.0,0.4,73,0.00,,,0.00,WUHU216HW,2013-06-22 14:50:00,
2013-06-22 10:55:00,77.4,67.3,29.86,WSW,248,1.8,1.8,71,0.00,,,0.00,WUHU216HW,2013-06-22 14:55:00,
2013-06-22 11:00:00,77.8,67.2,29.86,West,264,0.5,1.8,70,0.00,,,0.00,WUHU216HW,2013-06-22 15:00:00,
2013-06-22 11:05:00,78.3,67.8,29.86,West,270,0.0,1.8,70,0.00,,,0.00,WUHU216HW,2013-06-22 15:05:00,
2013-06-22 11:10:00,78.8,67.8,29.86,North,0,0.4,1.1,69,0.00,,,0.00,WUHU216HW,2013-06-22 15:10:00,
2013-06-22 11:15:00,80.5,69.4,29.87,West,270,1.1,1.1,69,0.00,,,0.00,WUHU216HW,2013-06-22 15:15:00,
2013-06-22 11:20:00,81.5,69.5,29.86,SW,225,1.1,1.1,67,0.00,,,0.00,WUHU216HW,2013-06-22 15:20:00,
2013-06-22 11:25:00,82.4,69.8,29.86,ESE,113,0.2,1.1,66,0.00,,,0.00,WUHU216HW,2013-06-22 15:25:00,
2013-06-22 11:30:00,82.4,69.4,29.86,WSW,248,0.2,1.1,65,0.00,,,0.00,WUHU216HW,2013-06-22 15:30:00,
2013-06-22 11:35:00,83.2,70.1,29.86,West,270,0.4,1.1,65,0.00,,,0.00,WUHU216HW,2013-06-22 15:35:00,
2013-06-22 11:41:00,83.2,70.1,29.86,WSW,248,0.2,1.1,65,0.00,,,0.00,WUHU216HW,2013-06-22 15:41:00,
2013-06-22 11:46:00,83.2,70.1,29.86,WSW,248,0.0,0.2,65,0.00,,,0.00,WUHU216HW,2013-06-22 15:46:00,
2013-06-22 11:51:00,83.2,70.1,29.86,WSW,248,0.4,1.1,65,0.00,,,0.00,WUHU216HW,2013-06-22 15:51:00,
2013-06-22 11:56:00,82.8,68.4,29.86,WSW,248,0.7,1.1,62,0.00,,,0.00,WUHU216HW,2013-06-22 15:56:00,
2013-06-22 12:01:00,83.5,70.0,29.85,WSW,248,1.8,1.8,64,0.00,,,0.00,WUHU216HW,2013-06-22 16:01:00,
2013-06-22 12:06:00,84.6,70.7,29.85,North,0,0.4,1.8,63,0.00,,,0.00,WUHU216HW,2013-06-22 16:06:00,
2013-06-22 12:11:00,85.3,70.8,29.85,WSW,248,0.4,1.8,62,0.00,,,0.00,WUHU216HW,2013-06-22 16:11:00,
2013-06-22 12:16:00,86.0,71.0,29.85,WSW,248,0.2,0.4,61,0.00,,,0.00,WUHU216HW,2013-06-22 16:16:00,
2013-06-22 12:21:00,87.3,72.3,29.85,West,261,0.7,1.6,61,0.00,,,0.00,WUHU216HW,2013-06-22 16:21:00,
2013-06-22 12:27:00,87.7,72.6,29.85,North,0,0.4,1.6,61,0.00,,,0.00,WUHU216HW,2013-06-22 16:27:00,
2013-06-22 12:32:00,88.6,71.9,29.85,SW,235,1.3,3.1,58,0.00,,,0.00,WUHU216HW,2013-06-22 16:32:00,
2013-06-22 12:37:00,88.9,71.7,29.84,WSW,248,0.7,3.1,57,0.00,,,0.00,WUHU216HW,2013-06-22 16:37:00,
2013-06-22 12:42:00,88.7,71.0,29.84,WNW,293,0.7,1.1,56,0.00,,,0.00,WUHU216HW,2013-06-22 16:42:00,
2013-06-22 12:47:00,88.0,70.4,29.84,SW,225,0.4,1.1,56,0.00,,,0.00,WUHU216HW,2013-06-22 16:47:00,
2013-06-22 12:52:00,87.7,70.0,29.84,WNW,293,1.3,1.3,56,0.00,,,0.00,WUHU216HW,2013-06-22 16:52:00,
2013-06-22 12:57:00,87.5,69.8,29.83,North,0,0.4,1.3,56,0.00,,,0.00,WUHU216HW,2013-06-22 16:57:00,
2013-06-22 13:02:00,88.2,71.1,29.83,East,90,0.7,1.3,57,0.00,,,0.00,WUHU216HW,2013-06-22 17:02:00,
2013-06-22 13:07:00,88.7,69.4,29.83,East,90,3.1,3.1,53,0.00,,,0.00,WUHU216HW,2013-06-22 17:07:00,
2013-06-22 13:12:00,87.7,66.8,29.83,NE,45,1.8,3.1,50,0.00,,,0.00,WUHU216HW,2013-06-22 17:12:00,
2013-06-22 13:17:00,86.4,68.9,29.83,East,90,1.6,3.1,56,0.00,,,0.00,WUHU216HW,2013-06-22 17:17:00,
2013-06-22 13:23:00,86.2,69.2,29.83,SSW,210,1.0,1.8,57,0.00,,,0.00,WUHU216HW,2013-06-22 17:23:00,
2013-06-22 13:28:00,87.3,69.7,29.83,SW,227,1.5,1.8,56,0.00,,,0.00,WUHU216HW,2013-06-22 17:28:00,
2013-06-22 13:33:00,88.0,69.9,29.83,SE,135,1.1,1.8,55,0.00,,,0.00,WUHU216HW,2013-06-22 17:33:00,
2013-06-22 13:38:00,88.6,68.7,29.83,NNW,338,0.2,1.1,52,0.00,,,0.00,WUHU216HW,2013-06-22 17:38:00,
2013-06-22 13:43:00,88.7,67.2,29.82,WSW,248,2.9,2.9,49,0.00,,,0.00,WUHU216HW,2013-06-22 17:43:00,
2013-06-22 13:48:00,88.9,68.0,29.83,SW,218,0.9,2.9,50,0.00,,,0.00,WUHU216HW,2013-06-22 17:48:00,
2013-06-22 13:53:00,89.1,66.8,29.82,West,270,1.8,2.9,48,0.00,,,0.00,WUHU216HW,2013-06-22 17:53:00,
2013-06-22 13:58:00,89.3,67.0,29.83,WSW,248,4.0,4.0,48,0.00,,,0.00,WUHU216HW,2013-06-22 17:58:00,
2013-06-22 14:03:00,88.6,67.0,29.83,SSW,205,1.6,4.0,49,0.00,,,0.00,WUHU216HW,2013-06-22 18:03:00,
2013-06-22 14:08:00,88.7,67.8,29.83,West,263,1.4,4.0,50,0.00,,,0.00,WUHU216HW,2013-06-22 18:08:00,
2013-06-22 14:13:00,88.9,67.3,29.83,NE,55,2.1,4.5,49,0.00,,,0.00,WUHU216HW,2013-06-22 18:13:00,
2013-06-22 14:19:00,89.1,67.4,29.82,WSW,243,1.0,4.5,49,0.00,,,0.00,WUHU216HW,2013-06-22 18:19:00,
2013-06-22 14:24:00,89.3,67.0,29.82,West,270,2.5,2.5,48,0.00,,,0.00,WUHU216HW,2013-06-22 18:24:00,
2013-06-22 14:29:00,89.1,66.8,29.82,SSE,158,0.4,2.5,48,0.00,,,0.00,WUHU216HW,2013-06-22 18:29:00,
2013-06-22 14:34:00,88.0,66.5,29.82,WSW,247,1.7,2.5,49,0.00,,,0.00,WUHU216HW,2013-06-22 18:34:00,
2013-06-22 14:39:00,87.7,66.8,29.82,SSW,203,1.3,2.5,50,0.00,,,0.00,WUHU216HW,2013-06-22 18:39:00,
2013-06-22 14:44:00,87.5,67.1,29.82,WSW,255,1.6,2.7,51,0.00,,,0.00,WUHU216HW,2013-06-22 18:44:00,
2013-06-22 14:49:00,87.7,66.2,29.82,WNW,293,2.9,3.1,49,0.00,,,0.00,WUHU216HW,2013-06-22 18:49:00,
2013-06-22 14:54:00,87.5,66.6,29.82,WSW,248,3.6,3.6,50,0.00,,,0.00,WUHU216HW,2013-06-22 18:54:00,
2013-06-22 14:59:00,87.7,66.2,29.82,SSE,149,1.0,3.6,49,0.00,,,0.00,WUHU216HW,2013-06-22 18:59:00,
2013-06-22 15:04:00,87.3,66.5,29.82,SSE,158,3.1,5.1,50,0.00,,,0.00,WUHU216HW,2013-06-22 19:04:00,
2013-06-22 15:09:00,87.1,66.3,29.81,WSW,248,2.2,5.1,50,0.00,,,0.00,WUHU216HW,2013-06-22 19:09:00,
2013-06-22 15:15:00,87.1,66.3,29.81,SSW,203,3.6,3.6,50,0.00,,,0.00,WUHU216HW,2013-06-22 19:15:00,
2013-06-22 15:19:00,86.9,66.2,29.81,SSE,158,2.7,3.6,50,0.00,,,0.00,WUHU216HW,2013-06-22 19:19:00,
2013-06-22 15:25:00,86.9,66.2,29.81,WSW,248,3.4,3.4,50,0.00,,,0.00,WUHU216HW,2013-06-22 19:25:00,
2013-06-22 15:30:00,86.9,65.5,29.81,WSW,248,1.3,3.4,49,0.00,,,0.00,WUHU216HW,2013-06-22 19:30:00,
2013-06-22 15:35:00,86.8,66.0,29.81,West,265,1.7,3.4,50,0.00,,,0.00,WUHU216HW,2013-06-22 19:35:00,
2013-06-22 15:40:00,86.4,65.7,29.80,South,175,1.0,2.9,50,0.00,,,0.00,WUHU216HW,2013-06-22 19:40:00,
2013-06-22 15:45:00,86.2,64.9,29.80,SW,229,1.9,3.4,49,0.00,,,0.00,WUHU216HW,2013-06-22 19:45:00,
2013-06-22 15:50:00,86.4,65.1,29.80,WSW,248,2.0,3.4,49,0.00,,,0.00,WUHU216HW,2013-06-22 19:50:00,
2013-06-22 15:55:00,86.6,65.2,29.79,NE,45,2.3,3.4,49,0.00,,,0.00,WUHU216HW,2013-06-22 19:55:00,
2013-06-22 16:00:00,86.4,65.1,29.79,WSW,248,1.1,3.4,49,0.00,,,0.00,WUHU216HW,2013-06-22 20:00:00,
2013-06-22 16:05:00,86.4,65.1,29.79,NW,315,0.7,3.4,49,0.00,,,0.00,WUHU216HW,2013-06-22 20:05:00,
2013-06-22 16:10:00,86.4,65.1,29.79,ESE,113,0.9,3.1,49,0.00,,,0.00,WUHU216HW,2013-06-22 20:10:00,
2013-06-22 16:15:00,86.0,63.5,29.79,WSW,244,1.6,3.6,47,0.00,,,0.00,WUHU216HW,2013-06-22 20:15:00,
2013-06-22 16:20:00,85.9,63.9,29.79,WNW,293,1.8,3.6,48,0.00,,,0.00,WUHU216HW,2013-06-22 20:20:00,
2013-06-22 16:25:00,85.9,65.2,29.79,SW,225,1.1,1.8,50,0.00,,,0.00,WUHU216HW,2013-06-22 20:25:00,
2013-06-22 16:30:00,85.9,65.2,29.79,SSW,209,0.9,2.0,50,0.00,,,0.00,WUHU216HW,2013-06-22 20:30:00,
2013-06-22 16:35:00,85.7,65.0,29.79,NNE,23,2.7,2.9,50,0.00,,,0.00,WUHU216HW,2013-06-22 20:35:00,
2013-06-22 16:40:00,85.3,65.3,29.79,West,270,0.2,2.9,51,0.00,,,0.00,WUHU216HW,2013-06-22 20:40:00,
2013-06-22 16:45:00,85.0,65.4,29.79,WNW,293,0.7,2.7,52,0.00,,,0.00,WUHU216HW,2013-06-22 20:45:00,
2013-06-22 16:50:00,84.6,65.6,29.79,WSW,248,1.6,2.5,53,0.00,,,0.00,WUHU216HW,2013-06-22 20:50:00,
2013-06-22 16:56:00,84.4,65.4,29.78,WNW,293,0.4,1.6,53,0.00,,,0.00,WUHU216HW,2013-06-22 20:56:00,
2013-06-22 17:01:00,84.2,65.8,29.78,WSW,248,0.2,1.6,54,0.00,,,0.00,WUHU216HW,2013-06-22 21:01:00,
2013-06-22 17:06:00,83.9,65.4,29.78,North,0,0.4,0.7,54,0.00,,,0.00,WUHU216HW,2013-06-22 21:06:00,
2013-06-22 17:11:00,83.5,64.5,29.78,WNW,293,0.4,0.4,53,0.00,,,0.00,WUHU216HW,2013-06-22 21:11:00,
2013-06-22 17:16:00,83.3,64.9,29.78,SSW,203,0.4,0.7,54,0.00,,,0.00,WUHU216HW,2013-06-22 21:16:00,
2013-06-22 17:21:00,83.2,64.7,29.78,NW,315,0.0,1.8,54,0.00,,,0.00,WUHU216HW,2013-06-22 21:21:00,
2013-06-22 17:26:00,83.0,65.1,29.78,NNW,338,0.2,1.8,55,0.00,,,0.00,WUHU216HW,2013-06-22 21:26:00,
2013-06-22 17:31:00,82.8,64.9,29.78,SE,135,0.0,0.4,55,0.00,,,0.00,WUHU216HW,2013-06-22 21:31:00,
2013-06-22 17:36:00,82.8,65.4,29.78,SE,135,0.4,0.4,56,0.00,,,0.00,WUHU216HW,2013-06-22 21:36:00,
2013-06-22 17:41:00,82.4,65.1,29.78,ENE,68,0.0,0.4,56,0.00,,,0.00,WUHU216HW,2013-06-22 21:41:00,
2013-06-22 17:46:00,82.3,66.0,29.78,ENE,68,0.0,0.0,58,0.00,,,0.00,WUHU216HW,2013-06-22 21:46:00,
2013-06-22 17:51:00,82.1,65.8,29.77,ENE,68,0.0,0.0,58,0.00,,,0.00,WUHU216HW,2013-06-22 21:51:00,
2013-06-22 17:56:00,81.9,66.2,29.78,ENE,68,0.0,0.0,59,0.00,,,0.00,WUHU216HW,2013-06-22 21:56:00,
2013-06-22 18:01:00,81.7,66.5,29.78,ENE,68,0.0,0.0,60,0.00,,,0.00,WUHU216HW,2013-06-22 22:01:00,
2013-06-22 18:06:00,81.4,66.6,29.77,ENE,68,0.0,0.0,61,0.00,,,0.00,WUHU216HW,2013-06-22 22:06:00,
2013-06-22 18:11:00,81.0,66.3,29.77,ENE,68,0.0,0.0,61,0.00,,,0.00,WUHU216HW,2013-06-22 22:11:00,
2013-06-22 18:17:00,81.0,67.2,29.77,ENE,68,0.0,0.0,63,0.00,,,0.00,WUHU216HW,2013-06-22 22:17:00,
2013-06-22 18:22:00,81.0,67.2,29.77,ENE,68,0.0,0.0,63,0.00,,,0.00,WUHU216HW,2013-06-22 22:22:00,
2013-06-22 18:27:00,81.0,68.1,29.77,West,270,0.2,0.2,65,0.00,,,0.00,WUHU216HW,2013-06-22 22:27:00,
2013-06-22 18:32:00,81.0,68.1,29.77,West,270,0.0,0.2,65,0.00,,,0.00,WUHU216HW,2013-06-22 22:32:00,
2013-06-22 18:37:00,80.6,67.8,29.77,WNW,293,0.0,0.2,65,0.00,,,0.00,WUHU216HW,2013-06-22 22:37:00,
2013-06-22 18:42:00,80.5,68.0,29.78,WNW,293,0.0,0.0,66,0.00,,,0.00,WUHU216HW,2013-06-22 22:42:00,
2013-06-22 18:47:00,80.3,67.9,29.78,WNW,293,0.0,0.0,66,0.00,,,0.00,WUHU216HW,2013-06-22 22:47:00,
2013-06-22 18:52:00,79.9,67.5,29.77,WNW,293,0.0,0.0,66,0.00,,,0.00,WUHU216HW,2013-06-22 22:52:00,
2013-06-22 18:57:00,79.9,67.5,29.77,WNW,293,0.0,0.0,66,0.00,,,0.00,WUHU216HW,2013-06-22 22:57:00,
2013-06-22 19:02:00,79.7,67.3,29.77,WNW,293,0.0,0.0,66,0.00,,,0.00,WUHU216HW,2013-06-22 23:02:00,
2013-06-22 19:07:00,79.7,67.8,29.77,WNW,293,0.0,0.0,67,0.00,,,0.00,WUHU216HW,2013-06-22 23:07:00,
2013-06-22 19:12:00,79.6,67.6,29.77,WNW,293,0.0,0.0,67,0.00,,,0.00,WUHU216HW,2013-06-22 23:12:00,
2013-06-22 19:18:00,79.6,68.0,29.77,West,270,0.0,0.0,68,0.00,,,0.00,WUHU216HW,2013-06-22 23:18:00,
2013-06-22 19:23:00,79.2,68.1,29.77,NW,315,0.4,0.4,69,0.00,,,0.00,WUHU216HW,2013-06-22 23:23:00,
2013-06-22 19:28:00,79.0,68.0,29.77,NW,315,0.0,0.4,69,0.00,,,0.00,WUHU216HW,2013-06-22 23:28:00,
2013-06-22 19:33:00,78.8,68.6,29.77,NW,315,0.9,1.1,71,0.00,,,0.00,WUHU216HW,2013-06-22 23:33:00,
2013-06-22 19:38:00,78.7,68.5,29.77,NW,315,0.0,1.1,71,0.00,,,0.00,WUHU216HW,2013-06-22 23:38:00,
2013-06-22 19:43:00,78.3,68.1,29.78,NW,315,0.0,0.4,71,0.00,,,0.00,WUHU216HW,2013-06-22 23:43:00,
2013-06-22 19:48:00,78.1,68.0,29.78,NW,315,0.0,0.0,71,0.00,,,0.00,WUHU216HW,2013-06-22 23:48:00,
2013-06-22 19:53:00,77.9,68.2,29.78,NW,315,0.0,0.0,72,0.00,,,0.00,WUHU216HW,2013-06-22 23:53:00,
2013-06-22 19:58:00,77.8,68.1,29.78,NW,315,0.0,0.0,72,0.00,,,0.00,WUHU216HW,2013-06-22 23:58:00,
2013-06-22 20:04:00,77.6,67.9,29.78,NW,315,0.0,0.0,72,0.00,,,0.00,WUHU216HW,2013-06-23 00:04:00,
2013-06-22 20:09:00,77.4,67.7,29.78,NW,315,0.0,0.0,72,0.00,,,0.00,WUHU216HW,2013-06-23 00:09:00,
2013-06-22 20:14:00,77.2,68.3,29.78,NW,315,0.0,0.0,74,0.00,,,0.00,WUHU216HW,2013-06-23 00:14:00,
2013-06-22 20:19:00,77.0,68.1,29.78,NW,315,0.0,0.0,74,0.00,,,0.00,WUHU216HW,2013-06-23 00:19:00,
2013-06-22 20:24:00,77.0,68.1,29.78,NW,315,0.0,0.0,74,0.00,,,0.00,WUHU216HW,2013-06-23 00:24:00,
2013-06-22 20:29:00,76.9,68.3,29.78,NW,315,0.0,0.0,75,0.00,,,0.00,WUHU216HW,2013-06-23 00:29:00,
2013-06-22 20:34:00,76.7,68.1,29.78,NW,315,0.0,0.0,75,0.00,,,0.00,WUHU216HW,2013-06-23 00:34:00,
2013-06-22 20:39:00,76.5,68.0,29.78,NW,315,0.0,0.2,75,0.00,,,0.00,WUHU216HW,2013-06-23 00:39:00,
2013-06-22 20:44:00,76.3,68.2,29.78,NW,315,0.3,0.4,76,0.00,,,0.00,WUHU216HW,2013-06-23 00:44:00,
2013-06-22 20:49:00,76.0,68.2,29.78,NW,315,0.3,0.4,77,0.00,,,0.00,WUHU216HW,2013-06-23 00:49:00,
2013-06-22 20:54:00,75.8,68.0,29.78,NW,315,0.0,0.4,77,0.00,,,0.00,WUHU216HW,2013-06-23 00:54:00,
2013-06-22 20:59:00,75.8,68.0,29.78,NW,315,0.0,0.0,77,0.00,,,0.00,WUHU216HW,2013-06-23 00:59:00,
2013-06-22 21:04:00,75.4,67.8,29.79,NNW,338,0.0,0.0,77,0.00,,,0.00,WUHU216HW,2013-06-23 01:04:00,
2013-06-22 21:10:00,75.2,68.0,29.79,NNW,338,0.4,0.4,78,0.00,,,0.00,WUHU216HW,2013-06-23 01:10:00,
2013-06-22 21:15:00,75.1,67.8,29.79,NNW,338,0.0,0.4,78,0.00,,,0.00,WUHU216HW,2013-06-23 01:15:00,
2013-06-22 21:20:00,74.9,67.6,29.80,NNW,338,0.0,0.4,78,0.00,,,0.00,WUHU216HW,2013-06-23 01:20:00,
2013-06-22 21:25:00,74.5,67.7,29.80,NNW,338,0.4,0.4,79,0.00,,,0.00,WUHU216HW,2013-06-23 01:25:00,
2013-06-22 21:30:00,74.3,67.1,29.80,East,90,0.4,0.4,78,0.00,,,0.00,WUHU216HW,2013-06-23 01:30:00,
2013-06-22 21:35:00,74.2,66.9,29.80,East,90,0.0,0.4,78,0.00,,,0.00,WUHU216HW,2013-06-23 01:35:00,
2013-06-22 21:40:00,74.2,66.9,29.80,East,90,0.2,0.2,78,0.00,,,0.00,WUHU216HW,2013-06-23 01:40:00,
2013-06-22 21:45:00,74.0,66.7,29.80,East,90,0.0,0.2,78,0.00,,,0.00,WUHU216HW,2013-06-23 01:45:00,
2013-06-22 21:50:00,73.8,66.6,29.80,SW,225,0.4,0.4,78,0.00,,,0.00,WUHU216HW,2013-06-23 01:50:00,
2013-06-22 21:56:00,73.8,66.6,29.80,SW,225,0.0,1.1,78,0.00,,,0.00,WUHU216HW,2013-06-23 01:56:00,
2013-06-22 22:01:00,73.8,66.6,29.80,SW,225,0.2,1.1,78,0.00,,,0.00,WUHU216HW,2013-06-23 02:01:00,
2013-06-22 22:06:00,73.4,66.3,29.80,SW,225,0.0,0.2,78,0.00,,,0.00,WUHU216HW,2013-06-23 02:06:00,
2013-06-22 22:11:00,73.3,66.1,29.81,SW,225,0.4,0.4,78,0.00,,,0.00,WUHU216HW,2013-06-23 02:11:00,
2013-06-22 22:16:00,73.1,65.9,29.81,SW,225,0.0,0.4,78,0.00,,,0.00,WUHU216HW,2013-06-23 02:16:00,
2013-06-22 22:21:00,73.1,65.9,29.81,SW,225,0.0,0.4,78,0.00,,,0.00,WUHU216HW,2013-06-23 02:21:00,
2013-06-22 22:26:00,73.1,65.9,29.81,SW,225,0.0,0.0,78,0.00,,,0.00,WUHU216HW,2013-06-23 02:26:00,
2013-06-22 22:31:00,72.9,65.7,29.80,SW,225,0.0,0.0,78,0.00,,,0.00,WUHU216HW,2013-06-23 02:31:00,
2013-06-22 22:36:00,72.7,65.9,29.80,SW,225,0.0,0.0,79,0.00,,,0.00,WUHU216HW,2013-06-23 02:36:00,
2013-06-22 22:41:00,72.7,65.9,29.81,SW,225,0.0,0.0,79,0.00,,,0.00,WUHU216HW,2013-06-23 02:41:00,
2013-06-22 22:46:00,72.5,66.1,29.81,WSW,248,0.0,0.2,80,0.00,,,0.00,WUHU216HW,2013-06-23 02:46:00,
2013-06-22 22:52:00,72.4,65.9,29.81,WSW,248,0.7,0.7,80,0.00,,,0.00,WUHU216HW,2013-06-23 02:52:00,
2013-06-22 22:57:00,72.2,65.7,29.81,WSW,248,0.0,0.7,80,0.00,,,0.00,WUHU216HW,2013-06-23 02:57:00,
2013-06-22 23:02:00,72.0,65.5,29.81,WSW,248,0.0,0.0,80,0.00,,,0.00,WUHU216HW,2013-06-23 03:02:00,
2013-06-22 23:07:00,72.0,65.5,29.81,WSW,248,0.0,0.0,80,0.00,,,0.00,WUHU216HW,2013-06-23 03:07:00,
2013-06-22 23:12:00,71.8,65.3,29.82,WSW,248,0.0,0.0,80,0.00,,,0.00,WUHU216HW,2013-06-23 03:12:00,
2013-06-22 23:17:00,71.8,65.0,29.82,WSW,248,0.0,0.0,79,0.00,,,0.00,WUHU216HW,2013-06-23 03:17:00,
2013-06-22 23:22:00,71.8,65.0,29.82,WSW,248,0.0,0.0,79,0.00,,,0.00,WUHU216HW,2013-06-23 03:22:00,
2013-06-22 23:27:00,71.8,65.0,29.82,WSW,248,0.0,0.0,79,0.00,,,0.00,WUHU216HW,2013-06-23 03:27:00,
2013-06-22 23:32:00,71.6,65.2,29.82,WSW,248,0.0,0.0,80,0.00,,,0.00,WUHU216HW,2013-06-23 03:32:00,
2013-06-22 23:37:00,71.6,65.2,29.82,WSW,248,0.0,0.0,80,0.00,,,0.00,WUHU216HW,2013-06-23 03:37:00,
2013-06-22 23:42:00,71.5,65.4,29.82,WSW,248,0.0,0.0,81,0.00,,,0.00,WUHU216HW,2013-06-23 03:42:00,
2013-06-22 23:47:00,71.3,65.2,29.82,WSW,248,0.0,0.0,81,0.00,,,0.00,WUHU216HW,2013-06-23 03:47:00,
2013-06-22 23:53:00,71.1,65.0,29.82,WSW,248,0.0,0.0,81,0.00,,,0.00,WUHU216HW,2013-06-23 03:53:00,
2013-06-22 23:58:00,71.1,65.4,29.82,WSW,248,0.0,0.0,82,0.00,,,0.00,WUHU216HW,2013-06-23 03:58:00,